sensor_id;sensor_type;location;lat;lon;timestamp;pressure;altitude;pressure_sealevel;temperature;humidity
35694;BME280;21812;55.536;37.664;2022-08-03T00:01:51;99838.28;;;18.63;69.36
35694;BME280;21812;55.536;37.664;2022-08-03T00:04:17;99829.97;;;18.53;68.98
35694;BME280;21812;55.536;37.664;2022-08-03T00:06:42;99840.75;;;18.65;69.51
35694;BME280;21812;55.536;37.664;2022-08-03T00:09:08;99847.88;;;18.83;70.62
35694;BME280;21812;55.536;37.664;2022-08-03T00:11:34;99835.66;;;18.80;70.44
35694;BME280;21812;55.536;37.664;2022-08-03T00:14:02;99842.72;;;18.69;68.55
35694;BME280;21812;55.536;37.664;2022-08-03T00:16:28;99847.88;;;18.83;68.93
35694;BME280;21812;55.536;37.664;2022-08-03T00:18:53;99841.69;;;18.99;69.38
35694;BME280;21812;55.536;37.664;2022-08-03T00:21:19;99847.13;;;18.99;67.38
35694;BME280;21812;55.536;37.664;2022-08-03T00:23:45;99839.13;;;19.21;69.77
35694;BME280;21812;55.536;37.664;2022-08-03T00:26:10;99843.81;;;19.26;69.43
35694;BME280;21812;55.536;37.664;2022-08-03T00:28:36;99848.47;;;19.13;69.30
35694;BME280;21812;55.536;37.664;2022-08-03T00:31:02;99835.66;;;19.09;69.75
35694;BME280;21812;55.536;37.664;2022-08-03T00:33:27;99833.28;;;19.12;68.63
35694;BME280;21812;55.536;37.664;2022-08-03T00:35:53;99837.72;;;19.19;69.32
35694;BME280;21812;55.536;37.664;2022-08-03T00:38:19;99835.50;;;19.16;69.00
35694;BME280;21812;55.536;37.664;2022-08-03T00:40:45;99838.88;;;19.23;69.38
35694;BME280;21812;55.536;37.664;2022-08-03T00:43:11;99843.19;;;19.07;67.43
35694;BME280;21812;55.536;37.664;2022-08-03T00:45:39;99829.53;;;19.13;69.30
35694;BME280;21812;55.536;37.664;2022-08-03T00:48:08;99837.13;;;19.17;69.54
35694;BME280;21812;55.536;37.664;2022-08-03T00:50:37;99821.50;;;18.90;67.46
35694;BME280;21812;55.536;37.664;2022-08-03T00:53:06;99842.44;;;18.94;67.88
35694;BME280;21812;55.536;37.664;2022-08-03T00:55:37;99836.47;;;18.92;69.71
35694;BME280;21812;55.536;37.664;2022-08-03T00:58:03;99846.44;;;18.92;68.81
35694;BME280;21812;55.536;37.664;2022-08-03T01:00:32;99837.13;;;19.17;69.72
35694;BME280;21812;55.536;37.664;2022-08-03T01:03:01;99836.97;;;19.06;68.20
35694;BME280;21812;55.536;37.664;2022-08-03T01:05:27;99832.22;;;19.13;67.94
35694;BME280;21812;55.536;37.664;2022-08-03T01:08:04;99838.25;;;19.04;67.85
35694;BME280;21812;55.536;37.664;2022-08-03T01:16:05;99837.28;;;18.93;67.89
35694;BME280;21812;55.536;37.664;2022-08-03T01:18:41;99838.41;;;18.97;68.15
35694;BME280;21812;55.536;37.664;2022-08-03T01:21:26;99785.28;;;18.91;69.83
35694;BME280;21812;55.536;37.664;2022-08-03T01:32:19;99803.94;;;18.64;68.39
35694;BME280;21812;55.536;37.664;2022-08-03T01:34:49;99827.91;;;18.72;68.31
35694;BME280;21812;55.536;37.664;2022-08-03T01:37:23;99835.00;;;18.61;68.54
35694;BME280;21812;55.536;37.664;2022-08-03T01:39:53;99823.75;;;18.41;69.38
35694;BME280;21812;55.536;37.664;2022-08-03T01:42:22;99829.44;;;18.27;69.15
35694;BME280;21812;55.536;37.664;2022-08-03T01:44:51;99837.34;;;18.17;69.50
35694;BME280;21812;55.536;37.664;2022-08-03T01:47:19;99840.75;;;18.24;70.02
35694;BME280;21812;55.536;37.664;2022-08-03T01:49:46;99838.22;;;18.46;72.45
35694;BME280;21812;55.536;37.664;2022-08-03T01:52:17;99824.25;;;18.38;69.61
35694;BME280;21812;55.536;37.664;2022-08-03T01:54:45;99815.66;;;18.41;69.62
35694;BME280;21812;55.536;37.664;2022-08-03T01:57:13;99817.19;;;18.36;69.02
35694;BME280;21812;55.536;37.664;2022-08-03T01:59:41;99830.06;;;18.58;68.67
35694;BME280;21812;55.536;37.664;2022-08-03T02:02:11;99839.38;;;18.62;68.23
35694;BME280;21812;55.536;37.664;2022-08-03T02:04:40;99839.66;;;18.78;70.38
35694;BME280;21812;55.536;37.664;2022-08-03T02:07:07;99847.44;;;18.74;68.44
35694;BME280;21812;55.536;37.664;2022-08-03T02:09:36;99824.19;;;18.61;68.31
35694;BME280;21812;55.536;37.664;2022-08-03T02:12:07;99835.00;;;18.61;68.31
35694;BME280;21812;55.536;37.664;2022-08-03T02:14:34;99847.72;;;18.61;68.89
35694;BME280;21812;55.536;37.664;2022-08-03T02:17:01;99852.72;;;18.69;69.58
35694;BME280;21812;55.536;37.664;2022-08-03T02:19:27;99845.06;;;18.78;70.21
35694;BME280;21812;55.536;37.664;2022-08-03T02:21:54;99844.47;;;18.87;69.89
35694;BME280;21812;55.536;37.664;2022-08-03T02:24:22;99848.91;;;18.93;69.27
35694;BME280;21812;55.536;37.664;2022-08-03T02:26:48;99841.53;;;18.77;68.63
35694;BME280;21812;55.536;37.664;2022-08-03T02:29:19;99825.56;;;18.75;70.50
35694;BME280;21812;55.536;37.664;2022-08-03T02:31:48;99828.25;;;18.75;70.69
35694;BME280;21812;55.536;37.664;2022-08-03T02:34:15;99861.22;;;19.01;70.34
35694;BME280;21812;55.536;37.664;2022-08-03T02:36:46;99825.88;;;18.91;68.65
35694;BME280;21812;55.536;37.664;2022-08-03T02:39:16;99829.72;;;18.95;68.85
35694;BME280;21812;55.536;37.664;2022-08-03T02:41:49;99862.88;;;19.02;67.46
35694;BME280;21812;55.536;37.664;2022-08-03T02:44:18;99861.22;;;19.01;69.35
35694;BME280;21812;55.536;37.664;2022-08-03T02:46:48;99831.66;;;18.83;66.95
35694;BME280;21812;55.536;37.664;2022-08-03T02:49:18;99867.50;;;19.19;69.50
35694;BME280;21812;55.536;37.664;2022-08-03T02:51:46;99837.81;;;19.24;69.13
35694;BME280;21812;55.536;37.664;2022-08-03T02:54:14;99853.34;;;19.45;66.79
35694;BME280;21812;55.536;37.664;2022-08-03T02:56:43;99856.38;;;19.66;68.22
35694;BME280;21812;55.536;37.664;2022-08-03T02:59:10;99806.47;;;19.28;66.43
35694;BME280;21812;55.536;37.664;2022-08-03T03:01:37;99845.88;;;19.52;66.71
35694;BME280;21812;55.536;37.664;2022-08-03T03:04:04;99854.94;;;19.75;67.67
35694;BME280;21812;55.536;37.664;2022-08-03T03:06:30;99864.13;;;19.74;67.70
35694;BME280;21812;55.536;37.664;2022-08-03T03:08:57;99870.19;;;19.81;67.15
35694;BME280;21812;55.536;37.664;2022-08-03T03:11:24;99837.03;;;19.74;67.42
35694;BME280;21812;55.536;37.664;2022-08-03T03:13:51;99857.53;;;20.04;67.31
35694;BME280;21812;55.536;37.664;2022-08-03T03:16:18;99862.47;;;20.07;64.98
35694;BME280;21812;55.536;37.664;2022-08-03T03:18:46;99856.69;;;20.20;67.07
35694;BME280;21812;55.536;37.664;2022-08-03T03:21:15;99837.97;;;20.02;66.29
35694;BME280;21812;55.536;37.664;2022-08-03T03:23:41;99871.78;;;20.16;65.58
35694;BME280;21812;55.536;37.664;2022-08-03T03:26:08;99871.41;;;20.29;66.35
35694;BME280;21812;55.536;37.664;2022-08-03T03:28:34;99871.09;;;20.43;66.71
35694;BME280;21812;55.536;37.664;2022-08-03T03:31:04;99868.72;;;20.51;66.82
35694;BME280;21812;55.536;37.664;2022-08-03T03:33:32;99843.97;;;20.43;66.64
35694;BME280;21812;55.536;37.664;2022-08-03T03:35:58;99867.72;;;20.58;65.33
35694;BME280;21812;55.536;37.664;2022-08-03T03:38:24;99864.34;;;20.67;65.49
35694;BME280;21812;55.536;37.664;2022-08-03T03:40:50;99870.16;;;20.76;65.91
35694;BME280;21812;55.536;37.664;2022-08-03T03:43:16;99870.47;;;20.80;65.97
35694;BME280;21812;55.536;37.664;2022-08-03T03:45:43;99874.88;;;20.86;66.00
35694;BME280;21812;55.536;37.664;2022-08-03T03:48:10;99877.66;;;20.91;66.29
35694;BME280;21812;55.536;37.664;2022-08-03T03:50:36;99877.44;;;20.98;66.75
35694;BME280;21812;55.536;37.664;2022-08-03T03:53:08;99862.44;;;20.90;66.22
35694;BME280;21812;55.536;37.664;2022-08-03T03:55:35;99879.66;;;21.01;65.59
35694;BME280;21812;55.536;37.664;2022-08-03T03:58:01;99876.44;;;21.04;66.46
35694;BME280;21812;55.536;37.664;2022-08-03T04:00:28;99873.44;;;21.05;66.04
35694;BME280;21812;55.536;37.664;2022-08-03T04:02:54;99881.09;;;21.08;66.57
35694;BME280;21812;55.536;37.664;2022-08-03T04:05:20;99882.22;;;21.13;66.66
35694;BME280;21812;55.536;37.664;2022-08-03T04:08:06;99868.78;;;21.01;66.35
35694;BME280;21812;55.536;37.664;2022-08-03T04:11:13;99898.03;;;21.21;66.59
35694;BME280;21812;55.536;37.664;2022-08-03T04:14:00;99890.88;;;21.09;62.77
35694;BME280;21812;55.536;37.664;2022-08-03T04:16:32;99876.84;;;21.18;65.47
35694;BME280;21812;55.536;37.664;2022-08-03T04:19:01;99883.47;;;21.27;65.50
35694;BME280;21812;55.536;37.664;2022-08-03T04:21:31;99893.84;;;21.35;65.10
35694;BME280;21812;55.536;37.664;2022-08-03T04:24:02;99880.22;;;21.30;64.72
35694;BME280;21812;55.536;37.664;2022-08-03T04:26:35;99881.63;;;21.38;64.04
35694;BME280;21812;55.536;37.664;2022-08-03T04:29:02;99884.09;;;21.39;63.85
35694;BME280;21812;55.536;37.664;2022-08-03T04:31:28;99884.19;;;21.44;63.64
35694;BME280;21812;55.536;37.664;2022-08-03T04:33:55;99885.06;;;21.50;63.53
35694;BME280;21812;55.536;37.664;2022-08-03T04:36:25;99892.09;;;21.51;63.40
35694;BME280;21812;55.536;37.664;2022-08-03T04:38:54;99890.78;;;21.54;63.19
35694;BME280;21812;55.536;37.664;2022-08-03T04:41:24;99883.16;;;21.51;63.24
35694;BME280;21812;55.536;37.664;2022-08-03T04:43:53;99850.31;;;21.25;63.36
35694;BME280;21812;55.536;37.664;2022-08-03T04:46:22;99893.25;;;21.55;63.19
35694;BME280;21812;55.536;37.664;2022-08-03T04:48:49;99888.66;;;21.61;63.27
35694;BME280;21812;55.536;37.664;2022-08-03T04:51:15;99889.50;;;21.61;63.11
35694;BME280;21812;55.536;37.664;2022-08-03T04:53:42;99887.34;;;21.63;62.75
35694;BME280;21812;55.536;37.664;2022-08-03T04:56:08;99884.06;;;21.61;62.67
35694;BME280;21812;55.536;37.664;2022-08-03T04:58:34;99892.41;;;21.55;60.49
35694;BME280;21812;55.536;37.664;2022-08-03T05:00:59;99897.41;;;21.63;62.75
35694;BME280;21812;55.536;37.664;2022-08-03T05:03:25;99895.53;;;21.69;62.77
35694;BME280;21812;55.536;37.664;2022-08-03T05:05:52;99887.66;;;21.72;62.49
35694;BME280;21812;55.536;37.664;2022-08-03T05:08:18;99880.09;;;21.74;62.40
35694;BME280;21812;55.536;37.664;2022-08-03T05:10:45;99897.50;;;21.78;62.47
35694;BME280;21812;55.536;37.664;2022-08-03T05:13:10;99881.22;;;21.78;62.25
35694;BME280;21812;55.536;37.664;2022-08-03T05:15:38;99888.31;;;21.84;62.18
35694;BME280;21812;55.536;37.664;2022-08-03T05:18:04;99889.69;;;21.87;62.16
35694;BME280;21812;55.536;37.664;2022-08-03T05:20:30;99891.34;;;21.93;61.85
35694;BME280;21812;55.536;37.664;2022-08-03T05:22:56;99896.84;;;21.98;61.72
35694;BME280;21812;55.536;37.664;2022-08-03T05:25:22;99899.59;;;22.03;61.67
35694;BME280;21812;55.536;37.664;2022-08-03T05:27:48;99892.28;;;22.09;61.17
35694;BME280;21812;55.536;37.664;2022-08-03T05:30:14;99899.91;;;22.07;61.03
35694;BME280;21812;55.536;37.664;2022-08-03T05:32:40;99890.94;;;22.12;60.65
35694;BME280;21812;55.536;37.664;2022-08-03T05:35:06;99890.13;;;22.11;60.46
35694;BME280;21812;55.536;37.664;2022-08-03T05:37:32;99900.50;;;22.14;60.38
35694;BME280;21812;55.536;37.664;2022-08-03T05:39:58;99899.09;;;22.12;60.21
35694;BME280;21812;55.536;37.664;2022-08-03T05:42:23;99897.19;;;22.12;60.56
35694;BME280;21812;55.536;37.664;2022-08-03T05:44:49;99888.19;;;22.06;60.75
35694;BME280;21812;55.536;37.664;2022-08-03T05:47:15;99892.59;;;22.13;60.74
35694;BME280;21812;55.536;37.664;2022-08-03T05:49:40;99895.59;;;22.16;60.60
35694;BME280;21812;55.536;37.664;2022-08-03T05:52:06;99887.97;;;22.13;60.49
35694;BME280;21812;55.536;37.664;2022-08-03T05:54:32;99887.44;;;22.16;60.23
35694;BME280;21812;55.536;37.664;2022-08-03T05:57:00;99891.19;;;22.10;60.47
35694;BME280;21812;55.536;37.664;2022-08-03T05:59:26;99886.09;;;22.19;60.64
35694;BME280;21812;55.536;37.664;2022-08-03T06:01:52;99888.56;;;22.20;60.57
35694;BME280;21812;55.536;37.664;2022-08-03T06:04:17;99883.16;;;22.25;60.62
35694;BME280;21812;55.536;37.664;2022-08-03T06:06:44;99888.63;;;22.31;60.37
35694;BME280;21812;55.536;37.664;2022-08-03T06:09:09;99884.84;;;22.32;60.20
35694;BME280;21812;55.536;37.664;2022-08-03T06:11:36;99886.75;;;22.36;60.17
35694;BME280;21812;55.536;37.664;2022-08-03T06:14:02;99894.16;;;22.41;61.26
35694;BME280;21812;55.536;37.664;2022-08-03T06:16:27;99890.88;;;22.44;62.34
35694;BME280;21812;55.536;37.664;2022-08-03T06:18:54;99887.09;;;22.45;63.19
35694;BME280;21812;55.536;37.664;2022-08-03T06:21:28;99889.31;;;22.58;66.45
35694;BME280;21812;55.536;37.664;2022-08-03T06:23:54;99892.38;;;22.72;68.69
35694;BME280;21812;55.536;37.664;2022-08-03T06:26:20;99890.50;;;22.83;68.41
35694;BME280;21812;55.536;37.664;2022-08-03T06:28:46;99886.72;;;22.89;68.97
35694;BME280;21812;55.536;37.664;2022-08-03T06:31:16;99887.25;;;22.91;67.84
35694;BME280;21812;55.536;37.664;2022-08-03T06:33:42;99898.16;;;22.91;65.95
35694;BME280;21812;55.536;37.664;2022-08-03T06:36:07;99895.69;;;22.90;65.36
35694;BME280;21812;55.536;37.664;2022-08-03T06:38:33;99894.34;;;22.92;64.42
35694;BME280;21812;55.536;37.664;2022-08-03T06:40:59;99890.53;;;22.93;63.29
35694;BME280;21812;55.536;37.664;2022-08-03T06:43:24;99892.44;;;22.98;62.71
35694;BME280;21812;55.536;37.664;2022-08-03T06:45:53;99891.09;;;23.00;61.36
35694;BME280;21812;55.536;37.664;2022-08-03T06:48:18;99894.91;;;22.99;60.38
35694;BME280;21812;55.536;37.664;2022-08-03T06:50:44;99898.19;;;22.96;59.60
35694;BME280;21812;55.536;37.664;2022-08-03T06:53:09;99889.47;;;22.99;60.41
35694;BME280;21812;55.536;37.664;2022-08-03T06:55:38;99897.09;;;23.02;60.54
35694;BME280;21812;55.536;37.664;2022-08-03T06:58:03;99899.34;;;23.06;60.22
35694;BME280;21812;55.536;37.664;2022-08-03T07:00:29;99895.50;;;23.07;59.59
35694;BME280;21812;55.536;37.664;2022-08-03T07:02:55;99900.41;;;23.15;59.77
35694;BME280;21812;55.536;37.664;2022-08-03T07:05:21;99900.41;;;23.15;59.39
35694;BME280;21812;55.536;37.664;2022-08-03T07:07:47;99877.00;;;23.09;59.00
35694;BME280;21812;55.536;37.664;2022-08-03T07:10:13;99901.03;;;23.32;58.03
35694;BME280;21812;55.536;37.664;2022-08-03T07:12:39;99903.72;;;23.37;57.59
35694;BME280;21812;55.536;37.664;2022-08-03T07:15:06;99905.94;;;23.40;57.39
35694;BME280;21812;55.536;37.664;2022-08-03T07:17:34;99914.38;;;23.44;56.88
35694;BME280;21812;55.536;37.664;2022-08-03T07:20:01;99911.38;;;23.46;57.13
35694;BME280;21812;55.536;37.664;2022-08-03T07:22:28;99915.72;;;23.47;57.54
35694;BME280;21812;55.536;37.664;2022-08-03T07:24:54;99905.94;;;23.46;58.01
35694;BME280;21812;55.536;37.664;2022-08-03T07:27:21;99908.66;;;23.46;57.90
35694;BME280;21812;55.536;37.664;2022-08-03T07:29:46;99901.56;;;23.45;56.58
35694;BME280;21812;55.536;37.664;2022-08-03T07:32:12;99910.28;;;23.41;56.41
35694;BME280;21812;55.536;37.664;2022-08-03T07:34:38;99909.47;;;23.41;56.81
35694;BME280;21812;55.536;37.664;2022-08-03T07:37:03;99904.28;;;23.39;55.59
35694;BME280;21812;55.536;37.664;2022-08-03T07:39:29;99910.81;;;23.43;56.25
35694;BME280;21812;55.536;37.664;2022-08-03T07:41:55;99905.38;;;23.43;55.44
35694;BME280;21812;55.536;37.664;2022-08-03T07:44:21;99906.47;;;23.48;55.25
35694;BME280;21812;55.536;37.664;2022-08-03T07:46:46;99915.75;;;23.52;54.88
35694;BME280;21812;55.536;37.664;2022-08-03T07:49:12;99913.59;;;23.59;53.85
35694;BME280;21812;55.536;37.664;2022-08-03T07:51:38;99915.75;;;23.62;54.26
35694;BME280;21812;55.536;37.664;2022-08-03T07:54:04;99925.56;;;23.63;53.64
35694;BME280;21812;55.536;37.664;2022-08-03T07:56:29;99920.94;;;23.69;53.95
35694;BME280;21812;55.536;37.664;2022-08-03T07:58:55;99927.19;;;23.69;53.89
35694;BME280;21812;55.536;37.664;2022-08-03T08:01:21;99919.56;;;23.76;55.11
35694;BME280;21812;55.536;37.664;2022-08-03T08:03:48;99923.97;;;23.88;55.46
35694;BME280;21812;55.536;37.664;2022-08-03T08:06:14;99925.03;;;23.97;54.66
35694;BME280;21812;55.536;37.664;2022-08-03T08:08:40;99922.84;;;24.04;54.39
35694;BME280;21812;55.536;37.664;2022-08-03T08:11:06;99913.28;;;24.12;53.76
35694;BME280;21812;55.536;37.664;2022-08-03T08:13:32;99919.28;;;24.14;53.16
35694;BME280;21812;55.536;37.664;2022-08-03T08:15:59;99914.91;;;24.28;54.15
35694;BME280;21812;55.536;37.664;2022-08-03T08:18:24;99920.59;;;24.42;54.34
35694;BME280;21812;55.536;37.664;2022-08-03T08:20:50;99924.44;;;24.41;51.03
35694;BME280;21812;55.536;37.664;2022-08-03T08:23:16;99925.25;;;24.42;52.40
35694;BME280;21812;55.536;37.664;2022-08-03T08:25:51;99921.16;;;24.39;52.24
35694;BME280;21812;55.536;37.664;2022-08-03T08:28:17;99920.31;;;24.44;52.01
35694;BME280;21812;55.536;37.664;2022-08-03T08:30:43;99918.97;;;24.41;51.55
35694;BME280;21812;55.536;37.664;2022-08-03T08:33:12;99924.94;;;24.48;51.38
35694;BME280;21812;55.536;37.664;2022-08-03T08:35:38;99922.22;;;24.53;50.92
35694;BME280;21812;55.536;37.664;2022-08-03T08:38:04;99916.50;;;24.60;49.06
35694;BME280;21812;55.536;37.664;2022-08-03T08:40:30;99917.00;;;24.67;49.92
35694;BME280;21812;55.536;37.664;2022-08-03T08:42:58;99915.06;;;24.73;49.48
35694;BME280;21812;55.536;37.664;2022-08-03T08:45:23;99923.25;;;24.73;50.19
35694;BME280;21812;55.536;37.664;2022-08-03T08:47:49;99920.78;;;24.76;50.24
35694;BME280;21812;55.536;37.664;2022-08-03T08:50:19;99919.41;;;24.79;50.03
35694;BME280;21812;55.536;37.664;2022-08-03T08:52:47;99921.81;;;24.91;47.83
35694;BME280;21812;55.536;37.664;2022-08-03T08:55:18;99920.16;;;24.95;49.01
35694;BME280;21812;55.536;37.664;2022-08-03T08:58:05;99917.44;;;24.95;47.98
35694;BME280;21812;55.536;37.664;2022-08-03T09:00:33;99925.09;;;24.93;47.99
35694;BME280;21812;55.536;37.664;2022-08-03T09:03:00;99919.63;;;24.93;48.46
35694;BME280;21812;55.536;37.664;2022-08-03T09:05:26;99924.81;;;24.89;47.93
35694;BME280;21812;55.536;37.664;2022-08-03T09:07:51;99924.53;;;24.96;49.94
35694;BME280;21812;55.536;37.664;2022-08-03T09:10:19;99931.88;;;24.95;50.14
35694;BME280;21812;55.536;37.664;2022-08-03T09:12:48;99933.03;;;24.89;48.19
35694;BME280;21812;55.536;37.664;2022-08-03T09:15:28;99928.38;;;24.90;46.41
35694;BME280;21812;55.536;37.664;2022-08-03T09:18:01;99918.50;;;24.94;48.34
35694;BME280;21812;55.536;37.664;2022-08-03T09:20:29;99896.72;;;24.84;48.05
35694;BME280;21812;55.536;37.664;2022-08-03T09:22:59;99934.00;;;25.14;49.38
35694;BME280;21812;55.536;37.664;2022-08-03T09:25:35;99933.47;;;25.12;48.59
35694;BME280;21812;55.536;37.664;2022-08-03T09:28:11;99909.41;;;25.09;49.41
35694;BME280;21812;55.536;37.664;2022-08-03T09:30:43;99894.69;;;25.05;48.16
35694;BME280;21812;55.536;37.664;2022-08-03T09:33:13;99927.28;;;25.46;49.07
35694;BME280;21812;55.536;37.664;2022-08-03T09:35:43;99929.94;;;25.51;47.31
35694;BME280;21812;55.536;37.664;2022-08-03T09:38:13;99930.97;;;25.60;47.71
35694;BME280;21812;55.536;37.664;2022-08-03T09:40:39;99920.00;;;25.65;45.38
35694;BME280;21812;55.536;37.664;2022-08-03T09:43:06;99921.81;;;25.80;46.71
35694;BME280;21812;55.536;37.664;2022-08-03T09:45:37;99928.88;;;25.91;47.53
35694;BME280;21812;55.536;37.664;2022-08-03T09:48:25;99928.47;;;26.03;46.22
35694;BME280;21812;55.536;37.664;2022-08-03T09:50:53;99919.09;;;26.09;47.40
35694;BME280;21812;55.536;37.664;2022-08-03T09:53:20;99916.22;;;26.25;46.90
35694;BME280;21812;55.536;37.664;2022-08-03T09:56:12;99929.16;;;26.43;45.26
35694;BME280;21812;55.536;37.664;2022-08-03T09:58:46;99927.91;;;26.60;46.47
35694;BME280;21812;55.536;37.664;2022-08-03T10:01:12;99926.63;;;26.76;45.80
35694;BME280;21812;55.536;37.664;2022-08-03T10:03:38;99924.81;;;26.90;46.49
35694;BME280;21812;55.536;37.664;2022-08-03T10:06:17;99922.31;;;27.13;45.49
35694;BME280;21812;55.536;37.664;2022-08-03T10:09:07;99921.50;;;27.32;42.91
35694;BME280;21812;55.536;37.664;2022-08-03T10:11:33;99932.97;;;27.53;43.28
35694;BME280;21812;55.536;37.664;2022-08-03T10:14:08;99935.19;;;27.69;41.57
35694;BME280;21812;55.536;37.664;2022-08-03T10:16:38;99936.06;;;27.84;40.17
35694;BME280;21812;55.536;37.664;2022-08-03T10:19:06;99942.56;;;28.07;40.26
35694;BME280;21812;55.536;37.664;2022-08-03T10:21:34;99930.56;;;28.17;40.92
35694;BME280;21812;55.536;37.664;2022-08-03T10:24:05;99933.25;;;28.36;39.78
35694;BME280;21812;55.536;37.664;2022-08-03T10:26:33;99907.41;;;28.37;40.85
35694;BME280;21812;55.536;37.664;2022-08-03T10:29:02;99924.13;;;28.68;41.25
35694;BME280;21812;55.536;37.664;2022-08-03T10:31:34;99916.47;;;28.65;38.83
35694;BME280;21812;55.536;37.664;2022-08-03T10:34:04;99923.00;;;28.83;39.88
35694;BME280;21812;55.536;37.664;2022-08-03T10:36:32;99914.97;;;28.87;41.54
35694;BME280;21812;55.536;37.664;2022-08-03T10:39:00;99931.81;;;29.21;42.96
35694;BME280;21812;55.536;37.664;2022-08-03T10:41:31;99930.34;;;29.38;39.77
35694;BME280;21812;55.536;37.664;2022-08-03T10:44:05;99921.91;;;29.57;38.38
35694;BME280;21812;55.536;37.664;2022-08-03T10:46:34;99888.06;;;29.56;37.46
35694;BME280;21812;55.536;37.664;2022-08-03T10:49:01;99928.84;;;29.99;37.19
35694;BME280;21812;55.536;37.664;2022-08-03T10:51:27;99925.59;;;30.29;36.68
35694;BME280;21812;55.536;37.664;2022-08-03T10:53:57;99895.41;;;30.55;35.98
35694;BME280;21812;55.536;37.664;2022-08-03T11:02:12;99939.84;;;30.62;36.00
35694;BME280;21812;55.536;37.664;2022-08-03T11:04:39;99943.94;;;30.73;37.55
35694;BME280;21812;55.536;37.664;2022-08-03T11:09:44;99923.78;;;31.04;35.39
35694;BME280;21812;55.536;37.664;2022-08-03T11:14:49;99931.56;;;31.37;35.49
35694;BME280;21812;55.536;37.664;2022-08-03T11:17:15;99928.03;;;31.63;35.40
35694;BME280;21812;55.536;37.664;2022-08-03T11:22:10;99938.34;;;30.96;35.68
35694;BME280;21812;55.536;37.664;2022-08-03T11:30:22;99924.66;;;29.79;37.65
35694;BME280;21812;55.536;37.664;2022-08-03T11:32:57;99947.28;;;29.54;37.15
35694;BME280;21812;55.536;37.664;2022-08-03T11:35:32;99949.84;;;29.50;39.61
35694;BME280;21812;55.536;37.664;2022-08-03T11:38:04;99940.97;;;29.53;39.13
35694;BME280;21812;55.536;37.664;2022-08-03T11:40:46;99943.19;;;29.88;39.37
35694;BME280;21812;55.536;37.664;2022-08-03T11:48:26;99941.94;;;30.25;38.76
35694;BME280;21812;55.536;37.664;2022-08-03T11:50:54;99932.50;;;30.17;38.96
35694;BME280;21812;55.536;37.664;2022-08-03T11:53:21;99945.59;;;30.12;37.67
35694;BME280;21812;55.536;37.664;2022-08-03T11:55:46;99940.84;;;30.04;38.73
35694;BME280;21812;55.536;37.664;2022-08-03T11:58:18;99938.31;;;29.85;38.27
35694;BME280;21812;55.536;37.664;2022-08-03T12:00:44;99937.69;;;29.88;37.62
35694;BME280;21812;55.536;37.664;2022-08-03T12:03:12;99930.03;;;29.85;37.19
35694;BME280;21812;55.536;37.664;2022-08-03T12:05:43;99942.72;;;29.72;38.26
35694;BME280;21812;55.536;37.664;2022-08-03T12:08:12;99936.63;;;29.97;36.65
35694;BME280;21812;55.536;37.664;2022-08-03T12:10:39;99934.72;;;30.07;35.28
35694;BME280;21812;55.536;37.664;2022-08-03T12:13:06;99923.56;;;30.12;35.51
35694;BME280;21812;55.536;37.664;2022-08-03T12:15:34;99927.75;;;30.09;38.28
35694;BME280;21812;55.536;37.664;2022-08-03T12:18:02;99926.47;;;30.07;38.24
35694;BME280;21812;55.536;37.664;2022-08-03T12:20:30;99904.03;;;30.22;36.60
35694;BME280;21812;55.536;37.664;2022-08-03T12:23:04;99925.41;;;30.56;34.92
35694;BME280;21812;55.536;37.664;2022-08-03T12:25:31;99926.16;;;30.39;36.04
35694;BME280;21812;55.536;37.664;2022-08-03T12:28:17;99926.59;;;30.33;35.26
35694;BME280;21812;55.536;37.664;2022-08-03T12:30:49;99916.06;;;30.04;37.35
35694;BME280;21812;55.536;37.664;2022-08-03T12:33:24;99897.97;;;29.80;37.65
35694;BME280;21812;55.536;37.664;2022-08-03T12:36:10;99926.63;;;29.79;38.61
35694;BME280;21812;55.536;37.664;2022-08-03T12:38:37;99905.06;;;29.58;38.44
35694;BME280;21812;55.536;37.664;2022-08-03T12:41:06;99922.75;;;29.80;36.68
35694;BME280;21812;55.536;37.664;2022-08-03T12:43:34;99924.03;;;30.05;35.53
35694;BME280;21812;55.536;37.664;2022-08-03T12:46:11;99905.13;;;30.12;36.34
35694;BME280;21812;55.536;37.664;2022-08-03T12:49:00;99920.56;;;30.22;36.97
35694;BME280;21812;55.536;37.664;2022-08-03T12:51:27;99932.97;;;30.11;37.33
35694;BME280;21812;55.536;37.664;2022-08-03T12:53:54;99933.56;;;29.99;37.89
35694;BME280;21812;55.536;37.664;2022-08-03T12:56:20;99926.13;;;29.77;37.43
35694;BME280;21812;55.536;37.664;2022-08-03T12:58:46;99931.34;;;29.65;40.40
35694;BME280;21812;55.536;37.664;2022-08-03T13:01:12;99932.34;;;29.46;39.12
35694;BME280;21812;55.536;37.664;2022-08-03T13:03:42;99912.16;;;29.14;39.66
35694;BME280;21812;55.536;37.664;2022-08-03T13:08:38;99936.47;;;29.07;41.60
35694;BME280;21812;55.536;37.664;2022-08-03T13:11:24;99939.06;;;29.17;40.72
35694;BME280;21812;55.536;37.664;2022-08-03T13:13:52;99932.41;;;29.04;41.77
35694;BME280;21812;55.536;37.664;2022-08-03T13:16:18;99935.06;;;28.96;42.49
35694;BME280;21812;55.536;37.664;2022-08-03T13:18:50;99938.34;;;28.84;41.03
35694;BME280;21812;55.536;37.664;2022-08-03T13:21:19;99941.22;;;28.79;40.71
35694;BME280;21812;55.536;37.664;2022-08-03T13:23:45;99931.84;;;28.66;42.82
35694;BME280;21812;55.536;37.664;2022-08-03T13:26:14;99937.63;;;28.78;42.07
35694;BME280;21812;55.536;37.664;2022-08-03T13:28:40;99932.03;;;28.83;41.27
35694;BME280;21812;55.536;37.664;2022-08-03T13:31:06;99936.94;;;28.87;41.83
35694;BME280;21812;55.536;37.664;2022-08-03T13:33:31;99932.03;;;28.83;42.54
35694;BME280;21812;55.536;37.664;2022-08-03T13:35:59;99927.59;;;28.74;43.52
35694;BME280;21812;55.536;37.664;2022-08-03T13:38:25;99932.88;;;28.70;44.18